Terminal Aerodrome Forecast
Issued by NWS

Home | Current Version | Previous Version | Text Only | Print | Product List | Glossary On
Versions: 1 2 3 4 5 6 7 8 9 10 11 12 13 14 15 16
000
FTUS43 KEAX 211327 AAA
TAFSTJ
TAF AMD
KSTJ 211327Z 2113/2212 06007KT P6SM SCT030 SCT200
      TEMPO 2114/2118 6SM -TSRA OVC050CB
     FM211800 21009KT P6SM BKN040 BKN200
     FM212300 19008KT P6SM VCTS BKN040CB
     FM220400 30012KT 4SM -TSRA BKN035CB OVC050=

USA.gov is the U.S. government's official web portal to all federal, state and local government web resources and services.